Time;durP1;ratioP1;P1;durP2;ratioP2;P2;SDS_P1;SDS_P2;PMS_P1;PMS_P2;Temp;Humidity;BMP_temperature;BMP_pressure;BME280_temperature;BME280_humidity;BME280_pressure;Samples;Min_cycle;Max_cycle;Signal;HPM_P1;HPM_P2
2021/07/28 00:01:21;;;;;;;6.03;4.57;;;18.60;99.90;;;;;;4995152;28;20041;-79
2021/07/28 00:03:47;;;;;;;5.28;4.20;;;18.50;99.90;;;;;;4990008;28;20389;-77
2021/07/28 00:06:23;;;;;;;5.45;4.40;;;18.50;99.90;;;;;;5010457;28;20014;-78
2021/07/28 00:08:49;;;;;;;6.20;4.30;;;18.60;99.90;;;;;;4989963;28;20149;-78
2021/07/28 00:11:16;;;;;;;5.20;4.30;;;18.60;99.90;;;;;;4986779;28;20386;-79
2021/07/28 00:13:44;;;;;;;5.93;4.40;;;18.60;99.90;;;;;;4986427;28;20034;-78
2021/07/28 00:16:12;;;;;;;5.72;4.63;;;18.60;99.90;;;;;;4988760;28;20034;-78
2021/07/28 00:23:54;;;;;;;5.70;3.90;;;18.70;99.90;;;;;;5003057;28;20039;-78
2021/07/28 00:26:20;;;;;;;5.35;4.05;;;18.60;99.90;;;;;;4995577;28;20079;-77
2021/07/28 00:28:45;;;;;;;5.13;4.15;;;18.60;99.90;;;;;;5011552;28;20033;-78
2021/07/28 00:31:11;;;;;;;5.93;4.57;;;18.60;99.90;;;;;;4976147;28;20185;-78
2021/07/28 00:33:37;;;;;;;5.78;3.85;;;18.60;99.90;;;;;;4993645;28;20022;-79
2021/07/28 00:36:02;;;;;;;6.40;4.90;;;18.60;99.90;;;;;;4995897;28;20029;-78
2021/07/28 00:38:28;;;;;;;5.47;3.80;;;18.50;99.90;;;;;;4985749;28;20026;-78
2021/07/28 00:40:54;;;;;;;4.82;4.15;;;18.50;99.90;;;;;;4993863;28;20060;-79
2021/07/28 00:43:29;;;;;;;4.93;3.90;;;18.60;99.90;;;;;;4986350;28;20085;-78
2021/07/28 00:45:56;;;;;;;6.25;4.32;;;18.60;99.90;;;;;;4987175;28;20041;-78
2021/07/28 00:48:21;;;;;;;5.45;3.97;;;18.60;99.90;;;;;;5005701;28;20109;-77
2021/07/28 00:50:47;;;;;;;5.53;4.10;;;18.60;99.90;;;;;;5003899;28;20515;-79
2021/07/28 00:53:18;;;;;;;4.97;4.05;;;18.70;99.90;;;;;;5005724;28;20027;-78
2021/07/28 00:55:48;;;;;;;5.85;3.72;;;18.70;99.90;;;;;;5007354;28;20034;-78
2021/07/28 00:58:15;;;;;;;5.70;4.22;;;18.60;99.90;;;;;;5003508;28;20036;-77
2021/07/28 01:00:41;;;;;;;4.18;3.55;;;18.60;99.90;;;;;;5005569;28;20113;-77
2021/07/28 01:03:07;;;;;;;5.13;3.78;;;18.60;99.90;;;;;;4985237;28;20323;-78
2021/07/28 01:05:33;;;;;;;4.88;3.70;;;18.60;99.90;;;;;;5003819;28;20220;-79
2021/07/28 01:07:59;;;;;;;5.35;4.07;;;18.60;99.90;;;;;;4956846;28;20395;-78
2021/07/28 01:10:24;;;;;;;5.22;3.72;;;18.60;99.90;;;;;;5003996;28;20087;-77
2021/07/28 01:12:53;;;;;;;5.10;4.10;;;18.60;99.90;;;;;;4992797;28;20493;-77
2021/07/28 01:15:32;;;;;;;4.30;3.88;;;18.60;99.90;;;;;;5006301;28;20062;-78
2021/07/28 01:18:03;;;;;;;7.82;4.05;;;18.60;99.90;;;;;;5011438;28;20030;-78
2021/07/28 01:20:37;;;;;;;5.15;3.92;;;18.60;99.90;;;;;;4972439;28;20460;-77
2021/07/28 01:23:07;;;;;;;5.05;4.03;;;18.60;99.90;;;;;;4997697;28;20034;-78
2021/07/28 01:25:35;;;;;;;5.10;3.70;;;18.60;99.90;;;;;;5007246;28;20033;-77
2021/07/28 01:28:02;;;;;;;6.78;4.28;;;18.60;99.90;;;;;;5003108;28;20034;-77
2021/07/28 01:30:29;;;;;;;5.60;4.25;;;18.50;99.90;;;;;;4995489;28;20072;-79
2021/07/28 01:32:56;;;;;;;5.60;3.75;;;18.50;99.90;;;;;;5004413;28;20035;-77
2021/07/28 01:35:22;;;;;;;5.20;4.03;;;18.50;99.90;;;;;;4986114;28;20449;-78
2021/07/28 01:37:48;;;;;;;6.97;4.40;;;18.40;99.90;;;;;;5004154;28;20044;-78
2021/07/28 01:40:14;;;;;;;5.78;4.10;;;18.50;99.90;;;;;;4990019;28;20030;-77
2021/07/28 01:42:44;;;;;;;5.65;4.53;;;18.40;99.90;;;;;;4994758;28;20042;-78
2021/07/28 01:45:11;;;;;;;6.60;3.95;;;18.40;99.90;;;;;;5002678;28;20400;-78
2021/07/28 01:47:37;;;;;;;5.72;4.47;;;18.40;99.90;;;;;;5002342;28;20113;-78
2021/07/28 01:50:07;;;;;;;6.05;4.13;;;18.50;99.90;;;;;;4988862;28;20033;-77
2021/07/28 01:52:34;;;;;;;5.65;3.85;;;18.50;99.90;;;;;;5003298;28;20068;-78
2021/07/28 01:55:01;;;;;;;7.10;4.85;;;18.50;99.90;;;;;;4994285;28;20037;-79
2021/07/28 01:57:26;;;;;;;5.00;4.18;;;18.50;99.90;;;;;;4981372;28;20034;-78
2021/07/28 01:59:52;;;;;;;5.60;4.03;;;18.50;99.90;;;;;;5013801;28;20029;-78
2021/07/28 02:02:18;;;;;;;5.18;4.20;;;18.50;99.90;;;;;;4969891;28;20034;-79
2021/07/28 02:04:43;;;;;;;6.22;4.25;;;18.50;99.90;;;;;;4977837;28;20047;-79
2021/07/28 02:07:09;;;;;;;4.60;4.00;;;18.50;99.90;;;;;;4969801;28;20038;-79
2021/07/28 02:09:35;;;;;;;5.82;3.75;;;18.50;99.90;;;;;;5005791;28;20026;-77
2021/07/28 02:12:00;;;;;;;5.10;4.35;;;18.50;99.90;;;;;;5005321;28;20777;-78
2021/07/28 02:14:26;;;;;;;5.32;3.83;;;18.40;99.90;;;;;;5005099;28;20034;-78
2021/07/28 02:16:52;;;;;;;6.50;3.97;;;18.40;99.90;;;;;;4995978;28;20034;-78
2021/07/28 02:19:17;;;;;;;5.55;4.13;;;18.40;99.90;;;;;;4989562;28;20046;-78
2021/07/28 02:21:43;;;;;;;4.90;4.10;;;18.40;99.90;;;;;;4996763;28;20034;-79
2021/07/28 02:24:09;;;;;;;5.18;4.15;;;18.30;99.90;;;;;;5006398;28;20323;-78
2021/07/28 02:26:35;;;;;;;7.13;4.88;;;18.30;99.90;;;;;;5010246;28;20033;-79
2021/07/28 02:29:00;;;;;;;5.68;4.53;;;18.10;99.90;;;;;;4969748;28;20038;-79
2021/07/28 02:31:26;;;;;;;6.82;4.50;;;18.10;99.90;;;;;;4982994;28;20038;-78
2021/07/28 02:33:52;;;;;;;4.88;3.83;;;18.00;99.90;;;;;;5006507;28;20084;-78
2021/07/28 02:36:18;;;;;;;5.50;4.30;;;18.00;99.90;;;;;;4994712;28;20097;-79
2021/07/28 02:38:43;;;;;;;5.57;4.10;;;17.90;99.90;;;;;;5007960;28;20258;-78
2021/07/28 02:41:09;;;;;;;5.95;4.03;;;17.90;99.90;;;;;;5004972;28;20026;-79
2021/07/28 02:43:35;;;;;;;6.13;4.55;;;17.90;99.90;;;;;;4988036;28;20029;-79
2021/07/28 02:46:00;;;;;;;5.72;4.30;;;17.80;99.90;;;;;;5005849;28;20121;-80
2021/07/28 02:48:26;;;;;;;6.03;4.50;;;17.80;99.90;;;;;;4994591;28;20038;-78
2021/07/28 02:50:52;;;;;;;5.50;4.00;;;17.80;99.90;;;;;;5007477;28;20037;-77
2021/07/28 02:53:20;;;;;;;6.75;4.57;;;17.80;99.90;;;;;;4987428;28;20034;-78
2021/07/28 02:58:20;;;;;;;5.32;4.65;;;17.80;99.90;;;;;;5024347;28;20080;-77
2021/07/28 03:00:47;;;;;;;6.38;4.65;;;17.90;99.90;;;;;;4972289;28;20026;-76
2021/07/28 03:03:12;;;;;;;6.70;5.00;;;17.90;99.90;;;;;;5025546;28;20037;-76
2021/07/28 03:05:38;;;;;;;6.78;4.82;;;18.00;99.90;;;;;;5021521;28;20040;-77
2021/07/28 03:08:04;;;;;;;7.53;5.68;;;18.00;99.90;;;;;;5024030;28;20396;-77
2021/07/28 03:10:30;;;;;;;7.38;5.00;;;17.90;99.90;;;;;;5026693;28;20156;-77
2021/07/28 03:12:55;;;;;;;8.02;5.93;;;17.90;99.90;;;;;;5005329;28;20494;-77
2021/07/28 03:15:21;;;;;;;8.32;6.07;;;17.90;99.90;;;;;;5026605;28;20037;-77
2021/07/28 03:17:47;;;;;;;6.18;4.97;;;17.90;99.90;;;;;;5004563;28;20044;-77
2021/07/28 03:20:13;;;;;;;7.20;5.22;;;17.90;99.90;;;;;;5025781;28;20542;-77
2021/07/28 03:22:38;;;;;;;7.10;4.97;;;17.90;99.90;;;;;;5025717;28;20060;-78
2021/07/28 03:25:04;;;;;;;6.90;5.20;;;17.90;99.90;;;;;;5024041;28;20037;-77
2021/07/28 03:27:30;;;;;;;8.70;5.18;;;17.90;99.90;;;;;;5005905;28;20030;-77
2021/07/28 03:29:56;;;;;;;6.35;4.72;;;17.90;99.90;;;;;;5025175;28;20060;-77
2021/07/28 03:32:21;;;;;;;5.65;4.40;;;17.90;99.90;;;;;;5004739;28;20022;-77
2021/07/28 03:34:47;;;;;;;7.10;5.10;;;17.90;99.90;;;;;;5007271;28;20429;-77
2021/07/28 03:37:13;;;;;;;8.13;4.93;;;17.90;99.90;;;;;;4985666;28;20041;-77
2021/07/28 03:39:40;;;;;;;7.70;5.22;;;17.90;99.90;;;;;;4998081;28;20037;-77
2021/07/28 03:42:06;;;;;;;7.10;4.63;;;17.80;99.90;;;;;;5025936;28;20041;-77
2021/07/28 03:44:33;;;;;;;6.22;4.82;;;17.80;99.90;;;;;;5005325;28;20034;-77
2021/07/28 03:46:59;;;;;;;7.55;5.30;;;17.80;99.90;;;;;;5025331;28;20084;-77
2021/07/28 03:49:24;;;;;;;8.77;4.70;;;17.90;99.90;;;;;;5022143;28;20373;-77
2021/07/28 03:51:50;;;;;;;5.07;4.28;;;17.80;99.90;;;;;;5023900;28;20041;-77
2021/07/28 03:54:16;;;;;;;7.28;5.18;;;17.90;99.90;;;;;;5007922;28;20067;-77
2021/07/28 03:56:41;;;;;;;6.28;4.97;;;17.90;99.90;;;;;;5025329;28;20034;-77
2021/07/28 03:59:07;;;;;;;7.30;4.85;;;17.90;99.90;;;;;;5006902;28;20087;-77
2021/07/28 04:01:33;;;;;;;7.18;5.07;;;17.90;99.90;;;;;;5004083;28;20030;-76
2021/07/28 04:03:59;;;;;;;8.50;5.30;;;17.90;99.90;;;;;;4991394;28;20045;-76
2021/07/28 04:06:24;;;;;;;6.63;4.70;;;17.90;99.90;;;;;;5022409;28;20117;-77
2021/07/28 04:08:50;;;;;;;7.22;5.68;;;17.90;99.90;;;;;;5003851;28;20084;-77
2021/07/28 04:11:16;;;;;;;6.38;4.90;;;17.90;99.90;;;;;;5025357;28;20399;-76
2021/07/28 04:13:42;;;;;;;8.35;5.72;;;17.80;99.90;;;;;;5022797;28;20084;-77
2021/07/28 04:16:08;;;;;;;7.63;5.05;;;17.80;99.90;;;;;;5025527;28;20044;-77
2021/07/28 04:18:34;;;;;;;6.30;4.95;;;17.70;99.90;;;;;;5031500;28;20109;-77
2021/07/28 04:21:00;;;;;;;7.50;5.20;;;17.70;99.90;;;;;;5027005;28;20991;-77
2021/07/28 04:23:25;;;;;;;9.27;5.35;;;17.80;99.90;;;;;;5006258;28;20448;-77
2021/07/28 04:25:51;;;;;;;7.30;5.50;;;17.90;99.90;;;;;;5024183;28;20062;-76
2021/07/28 04:28:17;;;;;;;7.70;5.22;;;17.80;99.90;;;;;;5015109;28;20029;-77
2021/07/28 04:30:43;;;;;;;7.63;5.68;;;17.80;99.90;;;;;;5014757;28;20030;-77
2021/07/28 04:33:08;;;;;;;7.13;5.50;;;17.80;99.90;;;;;;5003899;28;20037;-77
2021/07/28 04:35:34;;;;;;;6.45;5.03;;;17.80;99.90;;;;;;4991332;28;20037;-76
2021/07/28 04:38:00;;;;;;;9.07;5.57;;;17.80;99.90;;;;;;4990336;28;20076;-77
2021/07/28 04:40:26;;;;;;;8.82;6.35;;;17.80;99.90;;;;;;5021472;28;20065;-77
2021/07/28 04:42:52;;;;;;;10.25;6.85;;;17.80;99.90;;;;;;4992303;28;20200;-77
2021/07/28 04:45:18;;;;;;;9.82;5.63;;;17.80;99.90;;;;;;5011895;28;20125;-77
2021/07/28 04:47:43;;;;;;;7.65;5.32;;;17.80;99.90;;;;;;5005438;28;20068;-79
2021/07/28 04:50:10;;;;;;;8.48;6.10;;;17.80;99.90;;;;;;5006254;28;20029;-77
2021/07/28 04:52:35;;;;;;;8.75;6.20;;;17.80;99.90;;;;;;5003516;28;20037;-77
2021/07/28 04:55:01;;;;;;;8.15;6.15;;;17.80;99.90;;;;;;4973323;28;20033;-77
2021/07/28 04:57:27;;;;;;;7.78;6.18;;;17.90;99.90;;;;;;4988304;28;20092;-77
2021/07/28 04:59:52;;;;;;;8.75;5.32;;;17.90;99.90;;;;;;4992583;28;20029;-77
2021/07/28 05:02:22;;;;;;;10.63;5.70;;;17.90;99.90;;;;;;5020796;28;20026;-77
2021/07/28 05:04:48;;;;;;;9.38;5.53;;;17.90;99.90;;;;;;5007034;28;20510;-77
2021/07/28 05:07:14;;;;;;;9.82;5.60;;;17.90;99.90;;;;;;5021580;28;20030;-77
2021/07/28 05:09:39;;;;;;;9.02;5.32;;;17.90;99.90;;;;;;5004909;28;20025;-77
2021/07/28 05:12:06;;;;;;;7.43;5.53;;;17.80;99.90;;;;;;5021512;28;20511;-76
2021/07/28 05:14:32;;;;;;;6.32;4.82;;;17.80;99.90;;;;;;5021180;28;20693;-76
2021/07/28 05:16:58;;;;;;;6.93;5.43;;;17.70;99.90;;;;;;5023774;28;20026;-77
2021/07/28 05:19:23;;;;;;;8.02;5.43;;;17.70;99.90;;;;;;4985887;28;20041;-77
2021/07/28 05:21:49;;;;;;;8.10;5.18;;;17.80;99.90;;;;;;5002071;28;20565;-76
2021/07/28 05:24:15;;;;;;;7.30;5.35;;;17.80;99.90;;;;;;5020823;28;20053;-77
2021/07/28 05:26:41;;;;;;;7.93;4.65;;;17.80;99.90;;;;;;4988509;28;20114;-76
2021/07/28 05:29:06;;;;;;;5.97;4.50;;;17.80;99.90;;;;;;5026136;28;20025;-77
2021/07/28 05:31:32;;;;;;;6.00;4.25;;;17.90;99.90;;;;;;5013557;28;20068;-77
2021/07/28 05:33:58;;;;;;;5.70;4.38;;;17.90;99.90;;;;;;4988860;28;20049;-77
2021/07/28 05:36:23;;;;;;;6.22;4.68;;;17.90;99.90;;;;;;5013101;28;20713;-77
2021/07/28 05:38:49;;;;;;;9.82;4.47;;;18.00;99.90;;;;;;5013735;28;20178;-77
2021/07/28 05:41:15;;;;;;;7.80;4.78;;;18.00;99.90;;;;;;4997017;28;20044;-77
2021/07/28 05:43:41;;;;;;;5.32;3.72;;;18.20;99.90;;;;;;5022139;28;20033;-77
2021/07/28 05:46:06;;;;;;;6.97;4.63;;;18.30;99.90;;;;;;5006109;28;20059;-76
2021/07/28 05:48:32;;;;;;;5.72;3.85;;;18.40;99.90;;;;;;5027074;28;20018;-77
2021/07/28 05:50:59;;;;;;;5.78;3.92;;;18.60;99.90;;;;;;5007324;28;20100;-77
2021/07/28 05:53:25;;;;;;;6.15;4.15;;;18.70;99.90;;;;;;5007297;28;20030;-77
2021/07/28 05:55:51;;;;;;;6.03;4.00;;;18.90;99.90;;;;;;5027533;28;20032;-77
2021/07/28 05:58:17;;;;;;;7.20;4.55;;;19.00;99.90;;;;;;5011886;28;20077;-76
2021/07/28 06:00:42;;;;;;;6.30;4.07;;;19.20;99.90;;;;;;4990915;28;20030;-77
2021/07/28 06:03:08;;;;;;;5.40;4.05;;;19.30;99.90;;;;;;5009789;28;20029;-77
2021/07/28 06:05:34;;;;;;;5.47;3.70;;;19.40;99.90;;;;;;5027722;28;20111;-77
2021/07/28 06:07:59;;;;;;;5.10;4.38;;;19.50;99.90;;;;;;5011123;28;20021;-77
2021/07/28 06:10:25;;;;;;;4.32;3.67;;;19.70;99.90;;;;;;5024462;28;20518;-77
2021/07/28 06:12:51;;;;;;;5.30;3.75;;;19.80;99.90;;;;;;4984848;28;20036;-76
2021/07/28 06:15:17;;;;;;;4.38;3.40;;;19.90;99.90;;;;;;4983548;28;20034;-77
2021/07/28 06:17:43;;;;;;;3.95;3.08;;;19.90;99.90;;;;;;5006561;28;20038;-76
2021/07/28 06:20:09;;;;;;;4.10;3.00;;;19.80;99.90;;;;;;5001879;28;20038;-77
2021/07/28 06:22:35;;;;;;;4.15;3.40;;;19.80;99.90;;;;;;5002648;28;20114;-77
2021/07/28 06:25:01;;;;;;;4.00;3.15;;;20.00;99.90;;;;;;5001759;28;20496;-77
2021/07/28 06:27:27;;;;;;;4.80;3.55;;;20.00;99.90;;;;;;4984546;28;20021;-77
2021/07/28 06:29:53;;;;;;;3.80;3.35;;;20.30;99.90;;;;;;5002903;28;20446;-77
2021/07/28 06:32:18;;;;;;;4.75;3.65;;;20.60;99.90;;;;;;4968626;28;20038;-77
2021/07/28 06:34:44;;;;;;;4.55;2.90;;;21.00;99.90;;;;;;5004745;28;20037;-77
2021/07/28 06:37:10;;;;;;;4.18;3.28;;;21.10;99.90;;;;;;5004045;28;20027;-77
2021/07/28 06:39:36;;;;;;;4.57;2.90;;;21.30;99.90;;;;;;5002595;28;20033;-77
2021/07/28 06:42:01;;;;;;;3.33;3.00;;;21.30;99.90;;;;;;5001980;28;20454;-76
2021/07/28 06:44:27;;;;;;;3.00;2.65;;;21.20;99.90;;;;;;4968022;28;20034;-77
2021/07/28 06:46:53;;;;;;;2.90;2.60;;;21.10;99.90;;;;;;5021197;28;20061;-77
2021/07/28 06:49:18;;;;;;;2.75;2.42;;;20.90;99.90;;;;;;5019809;28;20392;-77
2021/07/28 06:51:44;;;;;;;6.13;3.20;;;20.70;99.90;;;;;;5017877;28;20025;-77
2021/07/28 06:54:10;;;;;;;3.67;2.47;;;20.50;99.90;;;;;;5000490;28;20233;-78
2021/07/28 06:56:35;;;;;;;4.55;3.03;;;20.50;99.90;;;;;;5007922;28;20078;-77
2021/07/28 06:59:01;;;;;;;3.50;3.08;;;20.40;99.90;;;;;;5010695;28;20025;-76
2021/07/28 07:01:27;;;;;;;6.30;2.92;;;20.30;99.90;;;;;;5006537;28;20364;-77
2021/07/28 07:03:52;;;;;;;4.40;3.13;;;20.20;99.90;;;;;;4990247;28;20056;-77
2021/07/28 07:06:18;;;;;;;3.50;2.55;;;20.20;99.90;;;;;;5005506;28;20042;-77
2021/07/28 07:08:44;;;;;;;3.25;2.95;;;20.20;99.90;;;;;;4998013;28;20061;-77
2021/07/28 07:11:09;;;;;;;4.95;3.00;;;20.20;99.90;;;;;;5010885;28;20033;-77
2021/07/28 07:13:36;;;;;;;3.97;3.40;;;20.30;99.90;;;;;;5015552;28;20390;-77
2021/07/28 07:16:02;;;;;;;3.47;3.17;;;20.40;99.90;;;;;;4979180;28;20034;-77
2021/07/28 07:18:28;;;;;;;4.07;2.78;;;20.50;99.90;;;;;;4983172;28;20034;-77
2021/07/28 07:20:53;;;;;;;4.03;3.33;;;20.70;99.90;;;;;;5011019;28;20040;-78
2021/07/28 07:23:19;;;;;;;5.78;3.38;;;20.80;99.90;;;;;;4993026;28;20062;-76
2021/07/28 07:25:45;;;;;;;3.33;2.80;;;20.90;99.90;;;;;;4981637;28;20033;-77
2021/07/28 07:28:10;;;;;;;5.60;3.03;;;21.00;99.90;;;;;;5000744;28;20031;-76
2021/07/28 07:30:36;;;;;;;3.53;2.83;;;21.20;99.90;;;;;;5007241;28;20029;-77
2021/07/28 07:35:46;;;;;;;3.47;2.88;;;21.40;99.90;;;;;;5008254;28;20026;-77
2021/07/28 07:38:11;;;;;;;7.13;3.17;;;21.40;99.90;;;;;;4962198;28;20128;-75
2021/07/28 07:40:37;;;;;;;4.32;3.00;;;21.60;99.90;;;;;;5016460;28;20359;-77
2021/07/28 07:43:07;;;;;;;5.78;3.22;;;21.70;99.90;;;;;;5016573;28;20491;-77
2021/07/28 07:45:33;;;;;;;5.13;3.17;;;21.70;99.90;;;;;;4966616;28;20037;-76
2021/07/28 07:47:59;;;;;;;3.65;2.90;;;21.70;99.90;;;;;;4974998;28;20026;-76
2021/07/28 07:50:25;;;;;;;3.30;2.70;;;21.70;99.90;;;;;;4999024;28;20037;-76
2021/07/28 07:52:51;;;;;;;3.80;3.00;;;21.80;99.90;;;;;;4987953;28;20026;-76
2021/07/28 07:55:16;;;;;;;5.38;3.17;;;21.90;99.90;;;;;;4984181;28;20045;-76
2021/07/28 07:57:42;;;;;;;4.30;3.22;;;21.90;99.90;;;;;;4997325;28;20098;-77
2021/07/28 08:00:08;;;;;;;5.32;3.70;;;21.80;99.90;;;;;;5011890;28;20278;-78
2021/07/28 08:02:34;;;;;;;3.28;2.90;;;21.60;99.90;;;;;;4985509;28;20036;-77
2021/07/28 08:04:59;;;;;;;4.22;3.35;;;21.60;99.90;;;;;;5007997;28;20033;-77
2021/07/28 08:07:25;;;;;;;3.40;2.72;;;21.70;99.90;;;;;;5001284;28;20462;-76
2021/07/28 08:09:51;;;;;;;5.32;3.60;;;21.70;99.90;;;;;;4982085;28;20026;-77
2021/07/28 08:12:16;;;;;;;4.78;3.20;;;21.70;99.90;;;;;;4999592;28;20345;-77
2021/07/28 08:14:42;;;;;;;4.45;3.42;;;21.50;99.90;;;;;;4999064;28;20076;-77
2021/07/28 08:17:08;;;;;;;4.95;3.40;;;21.40;99.90;;;;;;4995954;28;20048;-77
2021/07/28 08:19:33;;;;;;;4.18;3.00;;;21.20;99.90;;;;;;4978809;28;20072;-76
2021/07/28 08:21:59;;;;;;;3.53;2.90;;;21.00;99.90;;;;;;4999294;28;20033;-76
2021/07/28 08:24:25;;;;;;;2.90;2.55;;;20.90;99.90;;;;;;5015178;28;20033;-77
2021/07/28 08:26:50;;;;;;;4.25;3.38;;;20.80;99.90;;;;;;5014434;28;20111;-76
2021/07/28 08:29:16;;;;;;;5.95;3.67;;;20.70;99.90;;;;;;4983598;28;20037;-76
2021/07/28 08:31:42;;;;;;;5.30;3.45;;;20.60;99.90;;;;;;4984851;28;20088;-76
2021/07/28 08:34:07;;;;;;;4.45;3.30;;;20.50;99.90;;;;;;5001557;28;20041;-76
2021/07/28 08:36:33;;;;;;;5.72;3.78;;;20.50;99.90;;;;;;4982223;28;20030;-77
2021/07/28 08:38:59;;;;;;;3.53;3.17;;;20.50;99.90;;;;;;4999218;28;20057;-76
2021/07/28 08:41:27;;;;;;;5.97;3.90;;;20.60;99.90;;;;;;5018304;28;20037;-77
2021/07/28 08:43:57;;;;;;;5.00;3.65;;;20.70;99.90;;;;;;4957439;28;20119;-76
2021/07/28 08:46:26;;;;;;;4.63;3.60;;;20.70;99.90;;;;;;5000778;28;20034;-76
2021/07/28 08:48:53;;;;;;;5.55;3.20;;;20.80;99.90;;;;;;4996265;28;20033;-77
2021/07/28 08:51:18;;;;;;;4.50;3.60;;;20.90;99.90;;;;;;4990512;28;20543;-77
2021/07/28 08:53:44;;;;;;;5.78;3.83;;;20.90;99.90;;;;;;5013743;28;20045;-76
2021/07/28 08:56:10;;;;;;;4.57;3.28;;;20.80;99.90;;;;;;4980272;28;20045;-75
2021/07/28 08:58:38;;;;;;;4.47;3.78;;;20.70;99.90;;;;;;5017953;28;20033;-75
2021/07/28 09:01:04;;;;;;;4.78;3.60;;;20.60;99.90;;;;;;5017283;28;20068;-76
2021/07/28 09:03:29;;;;;;;4.88;3.70;;;20.50;99.90;;;;;;4995998;28;20048;-76
2021/07/28 09:05:57;;;;;;;5.10;3.50;;;20.50;99.90;;;;;;4997647;28;20057;-76
2021/07/28 09:08:28;;;;;;;4.35;3.60;;;20.50;99.90;;;;;;4984132;28;20523;-76
2021/07/28 09:10:58;;;;;;;3.95;3.35;;;20.40;99.90;;;;;;5013798;28;20034;-76
2021/07/28 09:13:35;;;;;;;5.43;3.38;;;20.50;99.90;;;;;;5010770;28;20088;-76
2021/07/28 09:16:04;;;;;;;5.13;3.42;;;20.60;99.90;;;;;;5010217;28;20037;-76
2021/07/28 09:18:38;;;;;;;5.15;3.90;;;20.80;99.90;;;;;;4999160;28;20064;-75
2021/07/28 09:21:06;;;;;;;4.53;3.88;;;20.90;99.90;;;;;;5012824;28;20045;-76
2021/07/28 09:23:37;;;;;;;5.30;3.65;;;21.10;99.90;;;;;;5007042;28;20333;-75
2021/07/28 09:26:05;;;;;;;5.55;3.55;;;21.30;99.90;;;;;;5001828;28;20480;-76
2021/07/28 09:28:32;;;;;;;4.97;3.65;;;21.40;99.90;;;;;;5020684;28;20230;-75
2021/07/28 09:30:58;;;;;;;5.10;3.60;;;21.50;99.90;;;;;;5013730;28;20236;-76
2021/07/28 09:33:24;;;;;;;4.20;3.80;;;21.60;99.90;;;;;;5003834;28;20506;-76
2021/07/28 09:35:50;;;;;;;4.72;3.63;;;21.70;99.90;;;;;;5019738;28;20401;-75
2021/07/28 09:38:48;;;;;;;4.18;3.40;;;21.80;99.90;;;;;;4995856;28;20037;-75
2021/07/28 09:41:17;;;;;;;4.50;3.78;;;21.90;99.90;;;;;;4974488;28;20029;-76
2021/07/28 09:43:55;;;;;;;3.55;3.05;;;21.80;99.90;;;;;;5020769;28;20043;-76
2021/07/28 09:46:22;;;;;;;4.32;3.45;;;21.80;99.90;;;;;;5017061;28;20029;-76
2021/07/28 09:48:48;;;;;;;5.18;3.67;;;21.70;99.90;;;;;;5003408;28;20359;-76
2021/07/28 09:51:25;;;;;;;4.45;3.55;;;21.60;99.90;;;;;;4999519;28;20075;-77
2021/07/28 09:53:58;;;;;;;4.72;3.38;;;21.60;99.90;;;;;;4990858;28;20219;-76
2021/07/28 09:56:53;;;;;;;3.60;3.30;;;21.40;99.90;;;;;;5011795;28;20388;-76
2021/07/28 09:59:19;;;;;;;5.30;3.30;;;21.30;99.90;;;;;;5005252;28;20054;-76
2021/07/28 10:01:46;;;;;;;5.18;3.08;;;21.30;99.90;;;;;;4999091;28;20053;-76
2021/07/28 10:04:14;;;;;;;3.85;3.28;;;21.20;99.90;;;;;;5017112;28;20112;-76
2021/07/28 10:06:48;;;;;;;5.15;3.13;;;21.10;99.90;;;;;;5014581;28;20056;-76
2021/07/28 10:09:19;;;;;;;5.43;3.15;;;21.00;99.90;;;;;;5013975;28;20574;-76
2021/07/28 10:11:47;;;;;;;5.60;3.53;;;20.90;99.90;;;;;;4995144;28;20029;-76
2021/07/28 10:14:20;;;;;;;4.80;2.75;;;20.80;99.90;;;;;;4995620;28;20061;-76
2021/07/28 10:16:51;;;;;;;4.00;3.25;;;20.80;99.90;;;;;;5010741;28;20037;-75
2021/07/28 10:19:17;;;;;;;3.50;3.03;;;20.70;99.90;;;;;;4991953;28;20053;-76
2021/07/28 10:21:43;;;;;;;4.68;3.58;;;20.60;99.90;;;;;;5014145;28;20666;-76
2021/07/28 10:24:09;;;;;;;2.95;2.50;;;20.60;99.90;;;;;;4980337;28;20021;-75
2021/07/28 10:26:39;;;;;;;4.63;3.00;;;20.50;99.90;;;;;;5001102;28;20100;-76
2021/07/28 10:29:05;;;;;;;3.38;2.60;;;20.50;99.90;;;;;;5014793;28;20408;-76
2021/07/28 10:31:48;;;;;;;3.70;2.85;;;20.40;99.90;;;;;;4996652;28;20030;-76
2021/07/28 10:34:28;;;;;;;4.28;3.05;;;20.30;99.90;;;;;;5014333;28;20164;-76
2021/07/28 10:37:00;;;;;;;4.25;2.75;;;20.20;99.90;;;;;;4993879;28;20030;-76
2021/07/28 10:39:51;;;;;;;4.35;2.78;;;20.10;99.90;;;;;;5016452;28;20434;-76
2021/07/28 10:42:17;;;;;;;2.42;2.22;;;20.10;99.90;;;;;;5018267;28;20719;-75
2021/07/28 10:45:03;;;;;;;3.63;2.65;;;20.10;99.90;;;;;;4998317;28;20503;-76
2021/07/28 10:47:51;;;;;;;3.63;2.70;;;20.10;99.90;;;;;;5021362;28;20147;-76
2021/07/28 10:50:26;;;;;;;3.97;2.78;;;20.10;99.90;;;;;;4993231;28;20122;-77
2021/07/28 10:52:56;;;;;;;3.88;2.80;;;20.00;99.90;;;;;;4993836;28;20034;-77
2021/07/28 10:55:32;;;;;;;4.30;3.20;;;19.90;99.90;;;;;;5022931;28;20041;-78
2021/07/28 10:58:10;;;;;;;5.68;3.50;;;19.80;99.90;;;;;;5019472;28;20084;-77
2021/07/28 11:00:39;;;;;;;5.07;3.17;;;19.70;99.90;;;;;;5017678;28;20030;-77
2021/07/28 11:03:08;;;;;;;3.83;2.95;;;19.60;99.90;;;;;;5023723;28;20112;-77
2021/07/28 11:05:39;;;;;;;4.82;2.70;;;19.50;99.90;;;;;;5006541;28;20077;-77
2021/07/28 11:08:05;;;;;;;4.03;2.72;;;19.30;99.90;;;;;;5024526;28;20737;-78
2021/07/28 11:10:33;;;;;;;5.13;3.10;;;19.20;99.90;;;;;;5030764;28;20029;-78
2021/07/28 11:13:03;;;;;;;4.03;3.35;;;19.10;99.90;;;;;;5010101;28;20029;-78
2021/07/28 11:15:29;;;;;;;3.65;3.08;;;19.10;99.90;;;;;;5004836;28;20460;-77
2021/07/28 11:17:56;;;;;;;4.22;2.75;;;19.00;99.90;;;;;;5030412;28;20060;-78
2021/07/28 11:20:28;;;;;;;3.67;3.25;;;19.00;99.90;;;;;;5023129;28;20037;-77
2021/07/28 11:23:21;;;;;;;3.90;3.00;;;19.00;99.90;;;;;;5023006;28;20404;-78
2021/07/28 11:26:07;;;;;;;4.13;2.85;;;19.00;99.90;;;;;;5013723;28;20192;-78
2021/07/28 11:28:33;;;;;;;5.13;3.38;;;19.00;99.90;;;;;;4983915;28;20414;-78
2021/07/28 11:31:00;;;;;;;4.03;3.10;;;19.00;99.90;;;;;;4986080;28;20108;-78
2021/07/28 11:33:28;;;;;;;3.63;2.90;;;19.00;99.90;;;;;;5024028;28;20030;-78
2021/07/28 11:35:56;;;;;;;5.85;2.80;;;19.00;99.90;;;;;;5024363;28;20485;-77
2021/07/28 11:38:26;;;;;;;4.00;2.97;;;19.00;99.90;;;;;;5018597;28;20041;-77
2021/07/28 11:40:57;;;;;;;3.55;3.08;;;19.00;99.90;;;;;;5006100;28;20044;-77
2021/07/28 11:43:28;;;;;;;4.75;2.90;;;19.00;99.90;;;;;;5020730;28;20099;-77
2021/07/28 11:45:59;;;;;;;4.10;3.22;;;19.10;99.90;;;;;;5020739;28;20699;-78
2021/07/28 11:48:35;;;;;;;4.88;3.25;;;19.10;99.90;;;;;;5007025;28;20037;-79
2021/07/28 11:51:04;;;;;;;;;;;19.10;99.90;;;;;;5019980;28;20048;-78
2021/07/28 11:53:31;;;;;;;4.20;3.70;;;19.00;99.90;;;;;;5019490;28;19956;-77
2021/07/28 11:56:05;;;;;;;3.80;2.80;;;18.90;99.90;;;;;;5018364;28;20080;-78
2021/07/28 11:58:31;;;;;;;7.13;3.80;;;18.80;99.90;;;;;;5020633;28;20037;-78
2021/07/28 12:00:57;;;;;;;4.93;3.63;;;18.70;99.90;;;;;;5019887;28;20076;-77
2021/07/28 12:03:23;;;;;;;4.22;3.20;;;18.80;99.90;;;;;;5010337;28;20369;-77
2021/07/28 12:06:03;;;;;;;4.55;3.80;;;18.70;99.90;;;;;;5027435;28;20561;-77
2021/07/28 12:08:38;;;;;;;4.88;3.55;;;18.70;99.90;;;;;;5004320;28;20036;-77
2021/07/28 12:11:05;;;;;;;4.07;3.22;;;18.80;99.90;;;;;;5018258;28;20084;-77
2021/07/28 12:13:41;;;;;;;6.13;3.72;;;18.70;99.90;;;;;;5034994;28;20087;-77
2021/07/28 12:16:07;;;;;;;5.63;3.40;;;18.80;99.90;;;;;;4989247;28;20068;-77
2021/07/28 12:18:44;;;;;;;5.97;3.75;;;18.90;99.90;;;;;;5029596;28;20056;-78
2021/07/28 12:21:10;;;;;;;4.47;3.30;;;19.00;99.90;;;;;;5010837;28;20029;-78
2021/07/28 12:23:36;;;;;;;5.43;3.65;;;19.20;99.90;;;;;;5032331;28;20033;-77
2021/07/28 12:26:02;;;;;;;5.22;3.50;;;19.50;99.90;;;;;;5008970;28;20033;-77
2021/07/28 12:28:48;;;;;;;5.15;3.75;;;19.70;99.90;;;;;;5009847;28;20026;-77
2021/07/28 12:31:27;;;;;;;5.90;3.38;;;19.90;99.90;;;;;;5025283;28;20040;-77
2021/07/28 12:33:53;;;;;;;5.68;3.80;;;20.20;99.90;;;;;;5025375;28;20341;-77
2021/07/28 12:36:28;;;;;;;3.58;3.00;;;20.40;99.90;;;;;;5026656;28;20047;-79
2021/07/28 12:38:54;;;;;;;5.17;3.53;;;20.50;99.90;;;;;;5024117;28;20502;-77
2021/07/28 12:41:20;;;;;;;6.65;3.50;;;20.70;99.90;;;;;;5027256;28;20108;-77
2021/07/28 12:43:46;;;;;;;4.38;3.40;;;20.70;99.90;;;;;;5026726;28;20041;-77
2021/07/28 12:46:11;;;;;;;5.35;3.53;;;20.70;99.90;;;;;;5002558;28;20431;-77
2021/07/28 12:48:39;;;;;;;4.53;3.60;;;20.80;99.90;;;;;;5017470;28;20026;-77
2021/07/28 12:51:08;;;;;;;5.93;3.47;;;20.80;99.90;;;;;;5015782;28;20030;-77
2021/07/28 12:53:34;;;;;;;5.75;3.25;;;20.80;99.90;;;;;;5020262;28;20038;-77
2021/07/28 12:56:01;;;;;;;5.05;3.20;;;20.80;99.90;;;;;;5018328;28;20049;-78
2021/07/28 12:58:27;;;;;;;4.32;3.33;;;20.80;99.90;;;;;;5015940;28;20038;-77
2021/07/28 13:00:55;;;;;;;3.53;3.15;;;20.90;99.90;;;;;;5018297;28;20172;-77